createdAt,value
2017-06-01T00:00:28.307Z,20.00
2017-06-01T00:02:56.599Z,19.80
2017-06-01T00:05:24.941Z,19.80
2017-06-01T00:07:53.268Z,19.70
2017-06-01T00:10:21.571Z,19.70
2017-06-01T00:12:49.101Z,19.70
2017-06-01T00:15:17.376Z,19.60
2017-06-01T00:17:45.671Z,19.60
2017-06-01T00:20:13.966Z,19.50
2017-06-01T00:22:42.287Z,19.50
2017-06-01T00:25:10.620Z,19.50
2017-06-01T00:27:38.959Z,19.40
2017-06-01T00:30:07.252Z,19.30
2017-06-01T00:32:35.548Z,19.30
2017-06-01T00:35:03.848Z,19.20
2017-06-01T00:37:32.129Z,19.20
2017-06-01T00:40:00.431Z,19.10
2017-06-01T00:42:28.710Z,19.20
2017-06-01T00:44:57.043Z,19.10
2017-06-01T00:47:25.338Z,19.10
2017-06-01T00:49:53.705Z,19.00
2017-06-01T00:52:22.008Z,19.00
2017-06-01T00:54:50.305Z,19.00
2017-06-01T00:57:18.639Z,19.00
2017-06-01T00:59:46.966Z,18.90
2017-06-01T01:02:15.248Z,18.90
2017-06-01T01:04:43.568Z,18.90
2017-06-01T01:07:11.913Z,18.80
2017-06-01T01:09:40.203Z,18.70
2017-06-01T01:12:08.516Z,18.70
2017-06-01T01:14:36.791Z,18.60
2017-06-01T01:17:05.096Z,18.60
2017-06-01T01:19:33.402Z,18.60
2017-06-01T01:22:00.948Z,18.60
2017-06-01T01:24:29.247Z,18.50
2017-06-01T01:26:57.852Z,18.50
2017-06-01T01:29:26.142Z,18.50
2017-06-01T01:31:54.475Z,18.40
2017-06-01T01:34:22.789Z,18.40
2017-06-01T01:36:51.088Z,18.30
2017-06-01T01:39:19.385Z,18.30
2017-06-01T01:41:47.727Z,18.40
2017-06-01T01:44:16.208Z,18.40
2017-06-01T01:46:44.500Z,18.50
2017-06-01T01:49:12.906Z,18.40
2017-06-01T01:51:41.199Z,18.30
2017-06-01T01:54:09.542Z,18.30
2017-06-01T01:56:37.871Z,18.20
2017-06-01T01:59:06.199Z,18.20
2017-06-01T02:01:34.486Z,18.10
2017-06-01T02:04:02.840Z,18.10
2017-06-01T02:06:31.130Z,18.00
2017-06-01T02:08:59.415Z,18.00
2017-06-01T02:11:27.787Z,18.00
2017-06-01T02:13:56.100Z,17.90
2017-06-01T02:16:24.418Z,17.90
2017-06-01T02:18:52.732Z,17.80
2017-06-01T02:21:21.020Z,17.80
2017-06-01T02:23:49.321Z,17.70
2017-06-01T02:26:17.626Z,17.60
2017-06-01T02:28:45.918Z,17.50
2017-06-01T02:31:14.234Z,17.60
2017-06-01T02:33:42.549Z,17.60
2017-06-01T02:36:10.870Z,17.50
2017-06-01T02:38:39.240Z,17.40
2017-06-01T02:41:07.577Z,17.40
2017-06-01T02:43:35.930Z,17.30
2017-06-01T02:46:04.220Z,17.30
2017-06-01T02:48:32.551Z,17.30
2017-06-01T02:51:00.865Z,17.20
2017-06-01T02:53:28.395Z,17.20
2017-06-01T02:55:56.672Z,17.20
2017-06-01T02:58:24.998Z,17.10
2017-06-01T03:00:53.267Z,17.10
2017-06-01T03:03:21.625Z,17.20
2017-06-01T03:05:49.936Z,17.10
2017-06-01T03:08:18.214Z,17.10
2017-06-01T03:10:45.780Z,17.00
2017-06-01T03:13:14.103Z,16.90
2017-06-01T03:15:42.413Z,16.90
2017-06-01T03:18:10.766Z,16.90
2017-06-01T03:20:39.077Z,16.90
2017-06-01T03:23:07.425Z,17.00
2017-06-01T03:25:35.736Z,16.90
2017-06-01T03:28:04.026Z,16.90
2017-06-01T03:30:32.339Z,16.90
2017-06-01T03:33:00.644Z,16.90
2017-06-01T03:35:28.928Z,16.90
2017-06-01T03:37:57.258Z,16.90
2017-06-01T03:40:25.605Z,16.80
2017-06-01T03:42:53.936Z,16.80
2017-06-01T03:45:22.274Z,16.90
2017-06-01T03:47:50.710Z,16.90
2017-06-01T03:50:19.035Z,16.90
2017-06-01T03:52:47.364Z,16.90
2017-06-01T03:55:15.696Z,16.90
2017-06-01T03:57:44.055Z,16.90
2017-06-01T04:00:12.398Z,16.90
2017-06-01T04:02:40.723Z,16.90
2017-06-01T04:05:09.024Z,17.00
2017-06-01T04:07:37.381Z,17.00
2017-06-01T04:10:05.748Z,17.00
2017-06-01T04:12:34.036Z,17.00
2017-06-01T04:15:02.360Z,17.00
2017-06-01T04:17:30.681Z,17.10
2017-06-01T04:19:59.021Z,17.10
2017-06-01T04:22:27.312Z,17.10
2017-06-01T04:24:55.632Z,17.10
2017-06-01T04:27:23.965Z,17.10
2017-06-01T04:29:52.276Z,17.10
2017-06-01T04:32:19.812Z,17.10
2017-06-01T04:34:48.146Z,17.00
2017-06-01T04:37:16.456Z,17.00
2017-06-01T04:39:44.758Z,17.10
2017-06-01T04:42:13.034Z,17.20
2017-06-01T04:44:41.340Z,17.30
2017-06-01T04:47:09.692Z,17.30
2017-06-01T04:49:37.975Z,17.30
2017-06-01T04:52:06.299Z,17.30
2017-06-01T04:54:34.593Z,17.40
2017-06-01T04:57:02.930Z,17.50
2017-06-01T04:59:31.247Z,17.50
2017-06-01T05:01:59.566Z,17.70
2017-06-01T05:04:27.876Z,17.70
2017-06-01T05:06:56.257Z,17.70
2017-06-01T05:09:24.552Z,17.70
2017-06-01T05:11:52.875Z,17.80
2017-06-01T05:14:21.207Z,17.90
2017-06-01T05:16:49.521Z,17.90
2017-06-01T05:19:17.806Z,18.00
2017-06-01T05:21:46.115Z,17.90
2017-06-01T05:24:14.452Z,17.90
2017-06-01T05:26:42.759Z,17.90
2017-06-01T05:29:11.053Z,18.00
2017-06-01T05:31:39.338Z,17.90
2017-06-01T05:34:07.669Z,17.90
2017-06-01T05:36:35.980Z,18.10
2017-06-01T05:39:04.327Z,18.10
2017-06-01T05:41:32.608Z,18.30
2017-06-01T05:44:00.935Z,18.40
2017-06-01T05:46:29.247Z,18.50
2017-06-01T05:48:57.904Z,18.50
2017-06-01T05:51:26.227Z,18.70
2017-06-01T05:53:54.603Z,18.80
2017-06-01T05:56:22.158Z,18.70
2017-06-01T05:58:50.495Z,19.10
2017-06-01T06:01:18.809Z,19.10
2017-06-01T06:03:47.106Z,19.10
2017-06-01T06:06:15.415Z,19.20
2017-06-01T06:08:43.699Z,19.30
2017-06-01T06:11:12.040Z,19.40
2017-06-01T06:13:40.361Z,19.40
2017-06-01T06:16:08.720Z,19.50
2017-06-01T06:18:37.022Z,19.50
2017-06-01T06:21:05.339Z,19.60
2017-06-01T06:23:33.666Z,19.60
2017-06-01T06:26:01.968Z,19.80
2017-06-01T06:28:30.351Z,20.10
2017-06-01T06:30:58.735Z,19.70
2017-06-01T06:33:27.063Z,20.00
2017-06-01T06:35:55.360Z,20.40
2017-06-01T06:38:23.659Z,20.60
2017-06-01T06:40:51.969Z,21.80
2017-06-01T06:43:20.404Z,23.60
2017-06-01T06:45:48.727Z,24.90
2017-06-01T06:48:17.112Z,26.60
2017-06-01T06:50:45.442Z,27.90
2017-06-01T06:53:13.771Z,28.30
2017-06-01T06:55:42.078Z,28.40
2017-06-01T06:58:10.389Z,29.70
2017-06-01T07:00:38.714Z,30.60
2017-06-01T07:03:07.035Z,30.80
2017-06-01T07:05:35.347Z,31.20
2017-06-01T07:08:03.628Z,31.10
2017-06-01T07:10:31.974Z,30.90
2017-06-01T07:13:00.294Z,31.00
2017-06-01T07:15:28.610Z,32.20
2017-06-01T07:17:56.937Z,32.90
2017-06-01T07:20:25.227Z,33.40
2017-06-01T07:22:53.531Z,33.60
2017-06-01T07:25:21.814Z,33.50
2017-06-01T07:27:50.158Z,34.00
2017-06-01T07:30:18.484Z,34.10
2017-06-01T07:32:46.816Z,34.30
2017-06-01T07:35:15.131Z,34.40
2017-06-01T07:37:43.483Z,34.40
2017-06-01T07:40:11.812Z,34.00
2017-06-01T07:42:40.162Z,33.50
2017-06-01T07:45:08.458Z,33.90
2017-06-01T07:47:36.792Z,34.00
2017-06-01T07:50:05.156Z,33.20
2017-06-01T07:52:33.473Z,33.10
2017-06-01T07:55:01.779Z,33.40
2017-06-01T07:57:30.059Z,33.90
2017-06-01T07:59:58.425Z,33.30
2017-06-01T08:02:25.962Z,33.30
2017-06-01T08:04:54.270Z,33.90
2017-06-01T08:07:22.601Z,34.20
2017-06-01T08:09:50.913Z,34.60
2017-06-01T08:12:19.220Z,35.30
2017-06-01T08:14:47.511Z,35.00
2017-06-01T08:17:15.834Z,35.40
2017-06-01T08:19:44.172Z,35.30
2017-06-01T08:22:12.511Z,35.30
2017-06-01T08:24:40.794Z,34.70
2017-06-01T08:27:09.092Z,34.00
2017-06-01T08:29:36.611Z,33.90
2017-06-01T08:32:04.913Z,33.80
2017-06-01T08:34:33.247Z,34.20
2017-06-01T08:37:01.601Z,34.40
2017-06-01T08:39:29.904Z,35.10
2017-06-01T08:41:58.208Z,35.00
2017-06-01T08:44:26.522Z,35.50
2017-06-01T08:46:54.864Z,35.40
2017-06-01T08:49:23.166Z,35.40
2017-06-01T08:51:51.494Z,34.60
2017-06-01T08:54:19.818Z,33.50
2017-06-01T08:56:48.145Z,32.40
2017-06-01T08:59:16.476Z,31.70
2017-06-01T09:01:44.775Z,31.10
2017-06-01T09:04:12.364Z,31.10
2017-06-01T09:06:40.665Z,30.40
2017-06-01T09:09:09.020Z,30.10
2017-06-01T09:11:37.355Z,29.80
2017-06-01T09:14:05.704Z,29.60
2017-06-01T09:16:34.030Z,29.60
2017-06-01T09:19:02.321Z,29.60
2017-06-01T09:21:30.612Z,29.60
2017-06-01T09:23:58.994Z,29.60
2017-06-01T09:26:27.369Z,29.60
2017-06-01T09:28:55.663Z,29.60
2017-06-01T09:31:23.223Z,29.60
2017-06-01T09:33:51.528Z,29.60
2017-06-01T09:36:19.836Z,29.70
2017-06-01T09:38:48.159Z,29.80
2017-06-01T09:41:16.462Z,29.90
2017-06-01T09:43:44.772Z,29.90
2017-06-01T09:46:13.038Z,30.00
2017-06-01T09:48:41.344Z,29.90
2017-06-01T09:51:09.674Z,30.00
2017-06-01T09:53:38.024Z,30.00
2017-06-01T09:56:06.319Z,29.70
2017-06-01T09:58:34.648Z,29.80
2017-06-01T10:01:02.922Z,29.60
2017-06-01T10:03:31.219Z,29.90
2017-06-01T10:05:59.569Z,30.30
2017-06-01T10:08:27.912Z,30.30
2017-06-01T10:10:56.236Z,30.40
2017-06-01T10:13:24.544Z,30.60
2017-06-01T10:15:52.845Z,30.80
2017-06-01T10:18:21.176Z,30.90
2017-06-01T10:20:49.475Z,30.80
2017-06-01T10:23:17.750Z,30.90
2017-06-01T10:25:46.094Z,30.90
2017-06-01T10:28:14.444Z,30.80
2017-06-01T10:30:42.736Z,30.80
2017-06-01T10:33:11.058Z,31.00
2017-06-01T10:35:39.376Z,31.10
2017-06-01T10:38:07.706Z,31.20
2017-06-01T10:40:35.998Z,31.20
2017-06-01T10:43:04.361Z,31.40
2017-06-01T10:45:32.648Z,31.50
2017-06-01T10:48:00.963Z,31.70
2017-06-01T10:50:28.518Z,31.70
2017-06-01T10:52:56.871Z,31.90
2017-06-01T10:55:25.207Z,32.00
2017-06-01T10:57:53.509Z,32.10
2017-06-01T11:00:21.834Z,32.10
2017-06-01T11:02:50.144Z,32.10
2017-06-01T11:05:18.485Z,32.10
2017-06-01T11:07:46.781Z,32.20
2017-06-01T11:10:15.078Z,32.20
2017-06-01T11:12:43.383Z,32.50
2017-06-01T11:15:11.713Z,32.40
2017-06-01T11:17:40.004Z,32.40
2017-06-01T11:20:08.358Z,32.40
2017-06-01T11:22:36.656Z,32.50
2017-06-01T11:25:04.196Z,32.50
2017-06-01T11:27:32.504Z,32.60
2017-06-01T11:30:00.846Z,32.60
2017-06-01T11:32:29.155Z,32.60
2017-06-01T11:34:57.467Z,32.70
2017-06-01T11:37:25.768Z,32.70
2017-06-01T11:39:54.072Z,32.80
2017-06-01T11:42:22.412Z,32.90
2017-06-01T11:44:50.711Z,33.10
2017-06-01T11:47:19.004Z,33.10
2017-06-01T11:49:47.342Z,33.10
2017-06-01T11:52:15.671Z,33.10
2017-06-01T11:54:43.970Z,33.30
2017-06-01T11:57:12.296Z,33.50
2017-06-01T11:59:40.644Z,33.50
2017-06-01T12:02:08.922Z,33.50
2017-06-01T12:04:37.218Z,33.30
2017-06-01T12:07:05.530Z,33.20
2017-06-01T12:09:33.840Z,33.10
2017-06-01T12:12:02.130Z,32.90
2017-06-01T12:14:30.475Z,32.60
2017-06-01T12:16:58.769Z,32.50
2017-06-01T12:19:27.076Z,32.60
2017-06-01T12:21:55.364Z,32.60
2017-06-01T12:24:22.907Z,32.60
2017-06-01T12:26:51.320Z,32.20
2017-06-01T12:29:19.633Z,31.90
2017-06-01T12:31:48.049Z,31.90
2017-06-01T12:34:16.338Z,32.10
2017-06-01T12:36:44.640Z,32.40
2017-06-01T12:39:12.960Z,32.20
2017-06-01T12:41:41.331Z,32.40
2017-06-01T12:44:09.658Z,32.90
2017-06-01T12:46:37.979Z,33.30
2017-06-01T12:49:06.296Z,33.50
2017-06-01T12:51:34.594Z,33.30
2017-06-01T12:54:02.922Z,33.00
2017-06-01T12:56:31.206Z,32.70
2017-06-01T12:58:59.541Z,32.40
2017-06-01T13:01:27.836Z,32.10
2017-06-01T13:03:56.146Z,31.90
2017-06-01T13:06:24.429Z,32.00
2017-06-01T13:08:52.763Z,32.10
2017-06-01T13:11:21.103Z,32.20
2017-06-01T13:13:49.404Z,31.90
2017-06-01T13:16:17.714Z,31.60
2017-06-01T13:18:45.994Z,31.50
2017-06-01T13:21:14.298Z,31.40
2017-06-01T13:23:42.592Z,31.30
2017-06-01T13:26:10.934Z,31.50
2017-06-01T13:28:39.255Z,31.30
2017-06-01T13:31:07.570Z,31.50
2017-06-01T13:33:35.870Z,32.10
2017-06-01T13:36:04.166Z,32.60
2017-06-01T13:38:32.466Z,33.00
2017-06-01T13:41:00.743Z,33.20
2017-06-01T13:43:29.066Z,33.50
2017-06-01T13:45:57.376Z,33.60
2017-06-01T13:48:25.717Z,33.70
2017-06-01T13:50:54.008Z,33.80
2017-06-01T13:53:22.329Z,33.90
2017-06-01T13:55:50.665Z,33.70
2017-06-01T13:58:18.974Z,33.60
2017-06-01T14:00:47.313Z,33.80
2017-06-01T14:03:15.622Z,34.10
2017-06-01T14:05:44.004Z,34.00
2017-06-01T14:08:12.329Z,33.80
2017-06-01T14:10:40.644Z,33.70
2017-06-01T14:13:08.954Z,33.70
2017-06-01T14:15:37.262Z,33.50
2017-06-01T14:18:05.549Z,33.40
2017-06-01T14:20:33.884Z,33.30
2017-06-01T14:23:02.177Z,33.10
2017-06-01T14:25:30.507Z,33.10
2017-06-01T14:27:58.815Z,33.00
2017-06-01T14:30:27.109Z,33.00
2017-06-01T14:32:55.419Z,33.20
2017-06-01T14:35:23.724Z,33.40
2017-06-01T14:37:52.079Z,33.60
2017-06-01T14:40:19.611Z,33.60
2017-06-01T14:42:47.951Z,33.70
2017-06-01T14:45:16.243Z,33.70
2017-06-01T14:47:44.578Z,33.80
2017-06-01T14:50:12.881Z,33.90
2017-06-01T14:52:41.198Z,33.60
2017-06-01T14:55:08.840Z,33.60
2017-06-01T14:57:37.196Z,33.60
2017-06-01T15:00:05.534Z,33.70
2017-06-01T15:02:33.832Z,33.80
2017-06-01T15:05:02.136Z,33.80
2017-06-01T15:07:30.434Z,33.90
2017-06-01T15:09:58.740Z,33.60
2017-06-01T15:12:27.074Z,33.60
2017-06-01T15:14:55.397Z,33.40
2017-06-01T15:17:23.707Z,33.50
2017-06-01T15:19:51.987Z,33.70
2017-06-01T15:22:20.310Z,33.70
2017-06-01T15:24:48.616Z,33.70
2017-06-01T15:27:16.946Z,33.80
2017-06-01T15:29:45.245Z,33.80
2017-06-01T15:32:13.572Z,33.70
2017-06-01T15:34:41.889Z,33.70
2017-06-01T15:37:10.166Z,33.50
2017-06-01T15:39:38.485Z,33.50
2017-06-01T15:42:06.800Z,33.40
2017-06-01T15:44:35.137Z,33.00
2017-06-01T15:47:03.425Z,32.90
2017-06-01T15:49:31.779Z,32.90
2017-06-01T15:52:00.096Z,32.90
2017-06-01T15:54:27.627Z,32.90
2017-06-01T15:56:55.951Z,32.80
2017-06-01T15:59:24.273Z,32.70
2017-06-01T16:01:52.582Z,32.60
2017-06-01T16:04:20.910Z,32.60
2017-06-01T16:06:49.211Z,32.50
2017-06-01T16:09:17.520Z,32.70
2017-06-01T16:11:45.836Z,32.80
2017-06-01T16:14:14.178Z,32.80
2017-06-01T16:16:42.536Z,32.80
2017-06-01T16:19:10.829Z,32.70
2017-06-01T16:21:39.154Z,32.50
2017-06-01T16:24:07.492Z,32.40
2017-06-01T16:26:35.867Z,32.40
2017-06-01T16:29:04.172Z,32.50
2017-06-01T16:31:32.499Z,32.40
2017-06-01T16:34:00.827Z,32.30
2017-06-01T16:36:29.160Z,32.20
2017-06-01T16:38:57.461Z,32.20
2017-06-01T16:41:25.797Z,32.00
2017-06-01T16:43:54.091Z,32.00
2017-06-01T16:46:22.393Z,31.90
2017-06-01T16:48:50.743Z,31.70
2017-06-01T16:51:19.047Z,31.70
2017-06-01T16:53:47.401Z,31.70
2017-06-01T16:56:15.691Z,31.70
2017-06-01T16:58:43.237Z,31.70
2017-06-01T17:01:11.561Z,31.70
2017-06-01T17:03:39.872Z,31.70
2017-06-01T17:06:08.171Z,31.60
2017-06-01T17:08:36.489Z,31.50
2017-06-01T17:11:04.767Z,31.40
2017-06-01T17:13:33.066Z,31.50
2017-06-01T17:16:01.352Z,31.50
2017-06-01T17:18:29.704Z,31.50
2017-06-01T17:20:58.018Z,31.50
2017-06-01T17:23:26.308Z,31.30
2017-06-01T17:25:54.627Z,31.30
2017-06-01T17:28:22.229Z,31.30
2017-06-01T17:30:50.538Z,31.30
2017-06-01T17:33:18.849Z,31.30
2017-06-01T17:35:47.200Z,31.20
2017-06-01T17:38:15.501Z,31.10
2017-06-01T17:40:43.835Z,31.10
2017-06-01T17:43:12.141Z,31.00
2017-06-01T17:45:40.514Z,31.00
2017-06-01T17:48:08.858Z,30.90
2017-06-01T17:50:37.179Z,30.80
2017-06-01T17:53:05.522Z,30.80
2017-06-01T17:55:33.030Z,30.80
2017-06-01T17:58:01.340Z,30.80
2017-06-01T18:00:29.675Z,30.80
2017-06-01T18:02:57.975Z,30.70
2017-06-01T18:05:26.255Z,30.70
2017-06-01T18:07:54.607Z,30.70
2017-06-01T18:10:22.921Z,30.60
2017-06-01T18:12:51.244Z,30.60
2017-06-01T18:15:20.046Z,30.50
2017-06-01T18:17:48.373Z,30.50
2017-06-01T18:20:16.711Z,30.50
2017-06-01T18:22:45.018Z,30.40
2017-06-01T18:25:13.320Z,30.50
2017-06-01T18:27:41.624Z,30.30
2017-06-01T18:30:10.004Z,30.30
2017-06-01T18:32:38.302Z,30.30
2017-06-01T18:35:06.630Z,30.20
2017-06-01T18:37:34.952Z,30.20
2017-06-01T18:40:03.305Z,30.10
2017-06-01T18:42:31.627Z,30.10
2017-06-01T18:44:59.977Z,30.00
2017-06-01T18:47:28.282Z,29.90
2017-06-01T18:49:56.613Z,29.80
2017-06-01T18:52:24.923Z,29.80
2017-06-01T18:54:53.241Z,29.70
2017-06-01T18:57:21.621Z,29.60
2017-06-01T18:59:50.016Z,29.50
2017-06-01T19:02:18.404Z,29.40
2017-06-01T19:04:46.769Z,29.40
2017-06-01T19:07:15.094Z,29.30
2017-06-01T19:09:43.391Z,29.10
2017-06-01T19:12:11.720Z,29.10
2017-06-01T19:14:40.038Z,29.00
2017-06-01T19:17:08.354Z,28.90
2017-06-01T19:19:36.672Z,28.90
2017-06-01T19:22:05.002Z,28.70
2017-06-01T19:24:33.363Z,28.60
2017-06-01T19:27:01.705Z,28.50
2017-06-01T19:29:30.051Z,28.50
2017-06-01T19:31:58.350Z,28.40
2017-06-01T19:34:26.706Z,28.30
2017-06-01T19:36:55.075Z,28.30
2017-06-01T19:39:23.419Z,28.20
2017-06-01T19:41:51.716Z,28.10
2017-06-01T19:44:20.130Z,28.00
2017-06-01T19:46:47.703Z,28.00
2017-06-01T19:49:15.996Z,28.00
2017-06-01T19:51:44.463Z,27.90
2017-06-01T19:54:12.793Z,27.70
2017-06-01T19:56:41.200Z,27.70
2017-06-01T19:59:09.579Z,27.70
2017-06-01T20:01:37.888Z,27.60
2017-06-01T20:04:06.182Z,27.40
2017-06-01T20:06:34.517Z,27.30
2017-06-01T20:09:02.831Z,27.30
2017-06-01T20:11:31.185Z,27.20
2017-06-01T20:13:59.471Z,27.20
2017-06-01T20:16:27.810Z,27.00
2017-06-01T20:18:56.101Z,26.90
2017-06-01T20:21:24.492Z,26.90
2017-06-01T20:23:52.825Z,26.90
2017-06-01T20:26:21.142Z,26.80
2017-06-01T20:28:49.484Z,26.80
2017-06-01T20:31:17.772Z,26.80
2017-06-01T20:33:46.113Z,26.70
2017-06-01T20:36:14.464Z,26.60
2017-06-01T20:38:42.794Z,26.50
2017-06-01T20:41:11.132Z,26.40
2017-06-01T20:43:39.522Z,26.30
2017-06-01T20:46:07.834Z,26.20
2017-06-01T20:48:36.151Z,26.10
2017-06-01T20:51:04.467Z,26.10
2017-06-01T20:53:32.772Z,26.00
2017-06-01T20:56:01.182Z,26.00
2017-06-01T20:58:29.479Z,26.00
2017-06-01T21:00:57.802Z,26.00
2017-06-01T21:03:26.091Z,26.00
2017-06-01T21:05:54.441Z,25.90
2017-06-01T21:08:22.771Z,25.90
2017-06-01T21:10:51.073Z,25.90
2017-06-01T21:13:19.365Z,25.90
2017-06-01T21:15:46.918Z,25.90
2017-06-01T21:18:15.266Z,25.70
2017-06-01T21:20:43.552Z,25.70
2017-06-01T21:23:11.869Z,25.60
2017-06-01T21:25:40.197Z,25.60
2017-06-01T21:28:08.539Z,25.50
2017-06-01T21:30:36.850Z,25.50
2017-06-01T21:33:05.168Z,25.50
2017-06-01T21:35:33.466Z,25.50
2017-06-01T21:38:01.832Z,25.50
2017-06-01T21:40:30.125Z,25.60
2017-06-01T21:42:58.484Z,25.60
2017-06-01T21:45:26.784Z,25.60
2017-06-01T21:47:55.151Z,25.60
2017-06-01T21:50:23.505Z,25.60
2017-06-01T21:52:51.057Z,25.60
2017-06-01T21:55:19.411Z,25.80
2017-06-01T21:57:47.748Z,25.80
2017-06-01T22:00:16.105Z,25.70
2017-06-01T22:02:44.391Z,25.70
2017-06-01T22:05:12.707Z,25.70
2017-06-01T22:07:40.993Z,25.60
2017-06-01T22:10:09.356Z,25.60
2017-06-01T22:12:37.664Z,25.40
2017-06-01T22:15:06.028Z,25.50
2017-06-01T22:17:34.316Z,25.50
2017-06-01T22:20:02.616Z,25.40
2017-06-01T22:22:30.978Z,25.30
2017-06-01T22:24:59.297Z,25.30
2017-06-01T22:27:27.625Z,25.20
2017-06-01T22:29:56.931Z,25.20
2017-06-01T22:32:25.238Z,25.20
2017-06-01T22:34:53.594Z,25.20
2017-06-01T22:37:21.932Z,25.10
2017-06-01T22:39:50.245Z,25.10
2017-06-01T22:42:18.581Z,25.10
2017-06-01T22:44:46.920Z,25.00
2017-06-01T22:47:15.247Z,25.00
2017-06-01T22:49:43.548Z,24.90
2017-06-01T22:52:11.843Z,24.80
2017-06-01T22:54:40.171Z,24.80
2017-06-01T22:57:08.505Z,24.80
2017-06-01T22:59:36.872Z,24.80
2017-06-01T23:02:05.167Z,24.70
2017-06-01T23:04:33.536Z,24.70
2017-06-01T23:07:01.831Z,24.70
2017-06-01T23:09:30.190Z,24.70
2017-06-01T23:11:58.480Z,24.70
2017-06-01T23:14:26.788Z,24.70
2017-06-01T23:16:55.205Z,24.60
2017-06-01T23:19:23.571Z,24.60
2017-06-01T23:21:51.902Z,24.50
2017-06-01T23:24:20.272Z,24.50
2017-06-01T23:26:48.600Z,24.50
2017-06-01T23:29:16.943Z,24.50
2017-06-01T23:31:45.274Z,24.60
2017-06-01T23:34:13.585Z,24.70
2017-06-01T23:36:41.902Z,24.80
2017-06-01T23:39:10.213Z,24.80
2017-06-01T23:41:38.561Z,24.70
2017-06-01T23:44:06.895Z,24.80
2017-06-01T23:46:35.268Z,24.80
2017-06-01T23:49:03.643Z,24.80
2017-06-01T23:51:31.962Z,24.80
2017-06-01T23:54:00.276Z,24.80
2017-06-01T23:56:28.592Z,24.80
2017-06-01T23:58:56.902Z,24.80
